createdAt,value
2023-05-10T00:01:16.810Z,3.70
2023-05-10T00:05:22.112Z,3.80
2023-05-10T00:09:27.160Z,3.40
2023-05-10T00:13:33.730Z,3.40
2023-05-10T00:17:39.308Z,3.20
2023-05-10T00:25:47.954Z,3.60
2023-05-10T00:29:53.034Z,3.10
2023-05-10T00:33:58.191Z,3.40
2023-05-10T00:38:03.346Z,3.10
2023-05-10T00:42:08.468Z,3.70
2023-05-10T00:46:13.832Z,3.50
2023-05-10T00:50:19.172Z,3.20
2023-05-10T00:54:24.300Z,3.10
2023-05-10T00:58:31.907Z,3.20
2023-05-10T01:02:37.270Z,3.20
2023-05-10T01:06:42.803Z,3.00
2023-05-10T01:10:50.116Z,3.10
2023-05-10T01:14:58.343Z,3.40
2023-05-10T01:23:20.456Z,3.10
2023-05-10T01:27:48.164Z,2.90
2023-05-10T01:32:15.831Z,3.20
2023-05-10T01:36:27.219Z,2.80
2023-05-10T01:40:36.142Z,3.50
2023-05-10T01:44:42.102Z,3.20
2023-05-10T01:48:49.939Z,2.90
2023-05-10T01:52:56.564Z,3.30
2023-05-10T01:57:04.203Z,3.50
2023-05-10T02:01:10.380Z,3.40
2023-05-10T02:05:16.509Z,3.20
2023-05-10T02:09:22.145Z,4.10
2023-05-10T02:13:27.996Z,3.60
2023-05-10T02:17:34.017Z,3.90
2023-05-10T02:21:39.703Z,4.10
2023-05-10T02:29:48.710Z,3.70
2023-05-10T02:33:55.504Z,3.50
2023-05-10T02:38:00.945Z,3.70
2023-05-10T02:42:07.018Z,3.90
2023-05-10T02:46:12.197Z,3.30
2023-05-10T02:50:17.670Z,3.60
2023-05-10T02:58:26.533Z,3.90
2023-05-10T03:02:32.071Z,3.80
2023-05-10T03:10:48.086Z,3.40
2023-05-10T03:14:55.421Z,3.30
2023-05-10T03:19:03.814Z,3.30
2023-05-10T03:23:22.182Z,3.00
2023-05-10T03:27:28.236Z,3.30
2023-05-10T03:31:33.484Z,3.20
2023-05-10T03:35:38.622Z,2.90
2023-05-10T03:39:43.726Z,3.30
2023-05-10T03:43:48.956Z,3.10
2023-05-10T03:47:54.516Z,3.30
2023-05-10T03:51:59.572Z,3.10
2023-05-10T03:56:04.782Z,3.20
2023-05-10T04:00:10.860Z,2.80
2023-05-10T04:04:15.973Z,3.00
2023-05-10T04:08:21.196Z,2.70
2023-05-10T04:12:26.309Z,2.60
2023-05-10T04:16:31.411Z,2.50
2023-05-10T04:20:36.531Z,2.60
2023-05-10T04:24:41.625Z,2.80
2023-05-10T04:28:46.803Z,2.00
2023-05-10T04:32:51.924Z,2.10
2023-05-10T04:36:57.081Z,2.40
2023-05-10T04:41:08.644Z,2.60
2023-05-10T04:45:15.603Z,2.30
2023-05-10T04:49:21.011Z,2.30
2023-05-10T04:57:30.216Z,1.90
2023-05-10T05:01:35.612Z,2.70
2023-05-10T05:05:40.699Z,2.00
2023-05-10T05:09:45.908Z,2.40
2023-05-10T05:13:50.958Z,2.20
2023-05-10T05:17:56.108Z,2.30
2023-05-10T05:22:01.279Z,1.80
2023-05-10T05:26:06.549Z,2.20
2023-05-10T05:30:12.293Z,2.10
2023-05-10T05:34:17.390Z,2.40
2023-05-10T05:38:22.484Z,2.20
2023-05-10T05:42:27.584Z,2.20
2023-05-10T05:46:32.811Z,1.80
2023-05-10T05:54:41.636Z,2.20
2023-05-10T05:58:47.498Z,1.90
2023-05-10T06:02:52.751Z,1.90
2023-05-10T06:11:01.427Z,1.90
2023-05-10T06:15:06.982Z,2.10
2023-05-10T06:19:12.205Z,2.30
2023-05-10T06:23:17.250Z,2.20
2023-05-10T06:27:22.710Z,2.10
2023-05-10T06:31:27.811Z,1.60
2023-05-10T06:39:37.807Z,2.00
2023-05-10T06:43:44.281Z,2.00
2023-05-10T06:47:50.159Z,1.80
2023-05-10T06:51:56.256Z,1.70
2023-05-10T06:56:01.421Z,1.70
2023-05-10T07:00:07.536Z,2.00
2023-05-10T07:04:12.837Z,2.00
2023-05-10T07:08:18.154Z,1.50
2023-05-10T07:12:23.375Z,1.80
2023-05-10T07:16:28.615Z,1.60
2023-05-10T07:20:33.824Z,1.80
2023-05-10T07:24:38.959Z,1.60
2023-05-10T07:28:44.053Z,1.80
2023-05-10T07:32:49.173Z,1.50
2023-05-10T07:36:54.680Z,1.60
2023-05-10T07:40:59.765Z,1.80
2023-05-10T07:45:05.057Z,1.30
2023-05-10T07:49:10.259Z,1.60
2023-05-10T07:53:15.348Z,2.10
2023-05-10T07:57:21.339Z,1.90
2023-05-10T08:01:26.972Z,1.80
2023-05-10T08:05:33.565Z,1.30
2023-05-10T08:09:40.345Z,1.90
2023-05-10T08:13:45.537Z,2.50
2023-05-10T08:17:50.611Z,1.30
2023-05-10T08:21:56.573Z,1.60
2023-05-10T08:26:02.003Z,1.70
2023-05-10T08:30:08.101Z,1.40
2023-05-10T08:34:13.258Z,1.40
2023-05-10T08:38:18.350Z,1.70
2023-05-10T08:42:24.774Z,1.40
2023-05-10T08:46:31.568Z,1.90
2023-05-10T08:50:37.610Z,1.50
2023-05-10T08:54:43.497Z,1.60
2023-05-10T08:58:49.945Z,1.80
2023-05-10T09:02:55.860Z,1.50
2023-05-10T09:07:01.252Z,1.60
2023-05-10T09:11:06.852Z,1.50
2023-05-10T09:15:12.223Z,1.60
2023-05-10T09:19:17.455Z,1.90
2023-05-10T09:23:22.554Z,1.90
2023-05-10T09:27:29.907Z,1.70
2023-05-10T09:31:48.905Z,2.20
2023-05-10T09:35:55.048Z,2.00
2023-05-10T09:40:05.266Z,1.70
2023-05-10T09:44:12.796Z,1.70
2023-05-10T09:48:17.904Z,1.50
2023-05-10T09:52:22.977Z,1.70
2023-05-10T09:56:38.526Z,2.10
2023-05-10T10:00:44.410Z,1.70
2023-05-10T10:04:51.050Z,1.80
2023-05-10T10:08:57.159Z,1.90
2023-05-10T10:13:02.387Z,1.50
2023-05-10T10:17:08.987Z,2.20
2023-05-10T10:21:15.556Z,1.70
2023-05-10T10:25:22.839Z,1.90
2023-05-10T10:29:32.045Z,1.80
2023-05-10T10:33:40.986Z,1.90
2023-05-10T10:37:49.406Z,1.90
2023-05-10T10:41:55.161Z,1.70
2023-05-10T10:46:14.611Z,1.70
2023-05-10T10:50:20.010Z,1.40
2023-05-10T10:54:30.328Z,2.00
2023-05-10T10:58:35.637Z,1.70
2023-05-10T11:02:49.689Z,2.00
2023-05-10T11:07:14.842Z,1.90
2023-05-10T11:11:19.944Z,1.80
2023-05-10T11:15:32.632Z,1.70
2023-05-10T11:19:40.033Z,1.80
2023-05-10T11:23:52.243Z,2.00
2023-05-10T11:27:57.828Z,1.90
2023-05-10T11:32:03.342Z,2.20
2023-05-10T11:36:12.677Z,1.80
2023-05-10T11:40:18.122Z,1.90
2023-05-10T11:44:23.291Z,1.90
2023-05-10T11:48:28.506Z,1.70
2023-05-10T11:52:37.290Z,2.20
2023-05-10T11:56:42.615Z,2.10
2023-05-10T12:00:48.470Z,1.90
2023-05-10T12:04:53.717Z,2.00
2023-05-10T12:08:58.950Z,1.90
2023-05-10T12:13:04.250Z,2.00
2023-05-10T12:17:13.414Z,1.80
2023-05-10T12:21:18.746Z,1.70
2023-05-10T12:25:24.803Z,2.00
2023-05-10T12:29:32.331Z,2.00
2023-05-10T12:33:42.721Z,2.00
2023-05-10T12:37:47.806Z,1.70
2023-05-10T12:41:52.884Z,1.90
2023-05-10T12:45:58.142Z,1.90
2023-05-10T12:50:03.732Z,2.10
2023-05-10T12:54:08.821Z,1.90
2023-05-10T12:58:17.976Z,1.90
2023-05-10T13:02:26.161Z,1.70
2023-05-10T13:06:31.827Z,2.20
2023-05-10T13:10:36.846Z,1.90
2023-05-10T13:14:42.562Z,1.60
2023-05-10T13:18:47.606Z,1.90
2023-05-10T13:22:52.781Z,1.80
2023-05-10T13:26:57.895Z,1.90
2023-05-10T13:31:03.014Z,1.70
2023-05-10T13:35:09.103Z,2.10
2023-05-10T13:39:14.153Z,1.90
2023-05-10T13:43:19.295Z,1.70
2023-05-10T13:47:24.346Z,2.00
2023-05-10T13:51:29.496Z,2.20
2023-05-10T13:55:36.920Z,1.90
2023-05-10T13:59:45.227Z,2.20
2023-05-10T14:03:50.455Z,2.10
2023-05-10T14:07:55.865Z,2.20
2023-05-10T14:12:00.947Z,1.60
2023-05-10T14:16:06.428Z,2.00
2023-05-10T14:20:12.382Z,2.10
2023-05-10T14:24:17.668Z,3.00
2023-05-10T14:28:23.756Z,2.60
2023-05-10T14:32:29.519Z,2.30
2023-05-10T14:36:34.687Z,1.90
2023-05-10T14:40:39.787Z,1.50
2023-05-10T14:44:44.918Z,1.70
2023-05-10T14:48:50.048Z,1.70
2023-05-10T14:52:55.227Z,1.90
2023-05-10T14:57:01.274Z,1.60
2023-05-10T15:01:06.869Z,2.10
2023-05-10T15:05:12.590Z,2.00
2023-05-10T15:09:18.252Z,1.80
2023-05-10T15:13:23.287Z,2.10
2023-05-10T15:17:28.410Z,1.80
2023-05-10T15:21:39.521Z,1.90
2023-05-10T15:25:44.746Z,1.80
2023-05-10T15:29:49.830Z,1.50
2023-05-10T15:33:58.800Z,2.10
2023-05-10T15:38:03.862Z,2.20
2023-05-10T15:42:08.937Z,2.00
2023-05-10T15:46:14.099Z,1.90
2023-05-10T15:50:19.470Z,1.90
2023-05-10T15:54:24.538Z,2.00
2023-05-10T15:58:29.609Z,1.70
2023-05-10T16:02:34.742Z,1.80
2023-05-10T16:06:39.945Z,2.30
2023-05-10T16:10:45.064Z,1.60
2023-05-10T16:14:50.270Z,1.70
2023-05-10T16:18:55.519Z,2.20
2023-05-10T16:23:04.444Z,1.70
2023-05-10T16:27:09.907Z,1.70
2023-05-10T16:31:15.173Z,1.80
2023-05-10T16:35:20.857Z,1.40
2023-05-10T16:39:55.681Z,1.60
2023-05-10T16:44:04.706Z,1.80
2023-05-10T16:48:09.828Z,1.90
2023-05-10T16:52:14.901Z,1.30
2023-05-10T16:56:49.616Z,1.50
2023-05-10T17:00:55.532Z,1.50
2023-05-10T17:05:00.708Z,1.60
2023-05-10T17:09:08.069Z,1.40
2023-05-10T17:13:13.326Z,2.00
2023-05-10T17:17:42.048Z,1.50
2023-05-10T17:22:13.487Z,1.70
2023-05-10T17:26:49.774Z,1.70
2023-05-10T17:30:58.439Z,1.70
2023-05-10T17:35:03.801Z,1.30
2023-05-10T17:39:08.970Z,1.40
2023-05-10T17:43:23.906Z,1.80
2023-05-10T17:47:29.009Z,1.40
2023-05-10T17:51:44.087Z,1.80
2023-05-10T17:55:49.655Z,1.50
2023-05-10T18:04:34.263Z,1.50
2023-05-10T18:08:39.495Z,2.70
2023-05-10T18:12:44.542Z,1.60
2023-05-10T18:16:50.354Z,1.70
2023-05-10T18:20:57.711Z,1.80
2023-05-10T18:25:03.325Z,1.60
2023-05-10T18:29:08.449Z,1.70
2023-05-10T18:33:13.752Z,2.50
2023-05-10T18:37:19.180Z,2.20
2023-05-10T18:41:26.797Z,2.60
2023-05-10T18:45:31.979Z,2.10
2023-05-10T18:49:37.076Z,2.20
2023-05-10T18:53:42.113Z,1.90
2023-05-10T18:57:47.218Z,2.20
2023-05-10T19:01:53.704Z,2.30
2023-05-10T19:06:00.405Z,1.80
2023-05-10T19:10:05.781Z,2.10
2023-05-10T19:14:10.934Z,1.80
2023-05-10T19:18:16.524Z,2.30
2023-05-10T19:22:35.402Z,2.30
2023-05-10T19:26:48.579Z,2.40
2023-05-10T19:30:53.805Z,2.00
2023-05-10T19:34:58.909Z,2.60
2023-05-10T19:39:04.052Z,2.80
2023-05-10T19:43:09.376Z,2.50
2023-05-10T19:47:14.567Z,2.30
2023-05-10T19:51:19.778Z,2.40
2023-05-10T19:55:28.873Z,3.00
2023-05-10T19:59:33.941Z,3.00
2023-05-10T20:03:39.090Z,2.80
2023-05-10T20:07:44.336Z,2.50
2023-05-10T20:11:49.914Z,2.80
2023-05-10T20:15:57.684Z,2.60
2023-05-10T20:20:02.777Z,2.80
2023-05-10T20:24:08.288Z,2.60
2023-05-10T20:28:13.359Z,2.50
2023-05-10T20:36:24.060Z,3.00
2023-05-10T20:40:29.263Z,2.80
2023-05-10T20:48:37.932Z,4.00
2023-05-10T20:56:46.560Z,4.10
2023-05-10T21:04:57.818Z,4.70
2023-05-10T21:09:03.392Z,3.10
2023-05-10T21:17:12.140Z,3.70
2023-05-10T21:21:17.197Z,4.70
2023-05-10T21:25:23.181Z,4.90
2023-05-10T21:29:28.656Z,5.90
2023-05-10T21:33:33.724Z,3.60
2023-05-10T21:37:38.898Z,2.70
2023-05-10T21:41:44.213Z,2.70
2023-05-10T21:45:49.401Z,2.50
2023-05-10T21:53:58.057Z,2.20
2023-05-10T21:58:03.116Z,2.00
2023-05-10T22:02:08.560Z,2.50
2023-05-10T22:06:13.701Z,2.10
2023-05-10T22:10:19.222Z,2.20
2023-05-10T22:14:24.550Z,2.20
2023-05-10T22:18:29.739Z,2.10
2023-05-10T22:26:38.514Z,2.00
2023-05-10T22:30:44.126Z,2.30
2023-05-10T22:34:49.295Z,2.10
2023-05-10T22:38:54.424Z,1.80
2023-05-10T22:47:03.065Z,1.80
2023-05-10T22:51:08.145Z,2.10
2023-05-10T22:55:13.238Z,2.20
2023-05-10T22:59:18.400Z,2.20
2023-05-10T23:03:23.494Z,2.60
2023-05-10T23:07:28.601Z,2.10
2023-05-10T23:11:33.704Z,2.00
2023-05-10T23:15:40.239Z,2.00
2023-05-10T23:19:45.415Z,2.00
2023-05-10T23:23:50.540Z,1.90
2023-05-10T23:31:59.363Z,1.90
2023-05-10T23:36:04.459Z,2.00
2023-05-10T23:40:11.209Z,2.10
2023-05-10T23:44:16.715Z,2.00
2023-05-10T23:48:22.251Z,1.90
2023-05-10T23:52:27.545Z,1.50
